createdAt,value
2023-02-01T00:00:46.687Z,100324.19
2023-02-01T00:03:15.880Z,100339.16
2023-02-01T00:05:45.672Z,100337.97
2023-02-01T00:08:14.671Z,100325.56
2023-02-01T00:10:43.385Z,100327.09
2023-02-01T00:13:12.783Z,100324.44
2023-02-01T00:15:43.786Z,100324.69
2023-02-01T00:21:07.283Z,100327.63
2023-02-01T00:23:36.790Z,100326.94
2023-02-01T00:26:15.533Z,100326.66
2023-02-01T00:28:44.717Z,100329.84
2023-02-01T00:31:36.833Z,100324.38
2023-02-01T00:34:08.271Z,100326.84
2023-02-01T00:36:34.835Z,100329.66
2023-02-01T00:39:04.018Z,100319.13
2023-02-01T00:41:33.171Z,100325.69
2023-02-01T00:43:59.876Z,100317.09
2023-02-01T00:46:26.644Z,100306.28
2023-02-01T00:48:56.027Z,100316.19
2023-02-01T00:51:23.806Z,100313.34
2023-02-01T00:53:53.007Z,100320.13
2023-02-01T00:56:19.807Z,100326.09
2023-02-01T00:58:49.262Z,100309.28
2023-02-01T01:01:15.989Z,100340.84
2023-02-01T01:03:45.955Z,100326.25
2023-02-01T01:06:21.570Z,100321.63
2023-02-01T01:08:48.249Z,100312.59
2023-02-01T01:11:19.338Z,100297.78
2023-02-01T01:13:49.959Z,100282.53
2023-02-01T01:16:17.520Z,100290.16
2023-02-01T01:18:44.624Z,100279.88
2023-02-01T01:21:15.496Z,100273.13
2023-02-01T01:23:42.972Z,100269.97
2023-02-01T01:26:17.417Z,100271.03
2023-02-01T01:28:44.040Z,100261.91
2023-02-01T01:31:13.775Z,100267.16
2023-02-01T01:33:44.967Z,100259.72
2023-02-01T01:36:21.595Z,100256.69
2023-02-01T01:38:57.162Z,100254.75
2023-02-01T01:41:36.636Z,100249.09
2023-02-01T01:44:41.045Z,100252.47
2023-02-01T01:47:17.595Z,100263.97
2023-02-01T01:49:46.540Z,100270.34
2023-02-01T01:52:18.851Z,100269.38
2023-02-01T01:54:46.700Z,100259.63
2023-02-01T01:57:20.483Z,100244.78
2023-02-01T01:59:54.748Z,100241.94
2023-02-01T02:02:23.687Z,100242.09
2023-02-01T02:04:51.022Z,100244.19
2023-02-01T02:07:19.513Z,100237.38
2023-02-01T02:09:59.477Z,100230.38
2023-02-01T02:12:30.260Z,100239.41
2023-02-01T02:14:56.903Z,100239.06
2023-02-01T02:17:31.332Z,100231.34
2023-02-01T02:19:58.013Z,100240.81
2023-02-01T02:22:42.710Z,100250.94
2023-02-01T02:25:28.411Z,100240.66
2023-02-01T02:28:12.186Z,100239.69
2023-02-01T02:30:38.942Z,100232.75
2023-02-01T02:33:21.371Z,100215.06
2023-02-01T02:35:48.315Z,100217.44
2023-02-01T02:38:25.078Z,100216.47
2023-02-01T02:41:34.976Z,100223.88
2023-02-01T02:44:20.325Z,100219.91
2023-02-01T02:47:10.181Z,100205.41
2023-02-01T02:50:14.708Z,100213.41
2023-02-01T02:53:02.668Z,100208.38
2023-02-01T02:55:38.471Z,100207.19
2023-02-01T02:58:24.641Z,100201.78
2023-02-01T03:01:10.368Z,100192.06
2023-02-01T03:03:58.961Z,100181.53
2023-02-01T03:06:26.027Z,100191.97
2023-02-01T03:08:55.119Z,100168.78
2023-02-01T03:11:21.917Z,100179.47
2023-02-01T03:13:58.685Z,100173.66
2023-02-01T03:16:27.781Z,100174.47
2023-02-01T03:18:55.332Z,100176.88
2023-02-01T03:21:26.108Z,100200.03
2023-02-01T03:23:53.171Z,100170.00
2023-02-01T03:26:22.001Z,100177.53
2023-02-01T03:28:57.568Z,100167.25
2023-02-01T03:31:27.108Z,100171.19
2023-02-01T03:33:53.764Z,100168.34
2023-02-01T03:36:26.455Z,100156.13
2023-02-01T03:38:53.279Z,100172.19
2023-02-01T03:41:28.333Z,100193.56
2023-02-01T03:44:07.581Z,100189.31
2023-02-01T03:46:35.176Z,100192.59
2023-02-01T03:49:06.371Z,100193.41
2023-02-01T03:51:37.391Z,100166.00
2023-02-01T03:54:06.841Z,100193.47
2023-02-01T03:56:36.310Z,100166.81
2023-02-01T03:59:31.259Z,100177.81
2023-02-01T04:01:57.885Z,100183.59
2023-02-01T04:04:27.453Z,100190.25
2023-02-01T04:06:56.562Z,100185.81
2023-02-01T04:09:25.575Z,100170.41
2023-02-01T04:11:52.228Z,100173.44
2023-02-01T04:14:23.703Z,100171.75
2023-02-01T04:16:50.365Z,100181.94
2023-02-01T04:19:19.981Z,100182.81
2023-02-01T04:21:46.853Z,100171.66
2023-02-01T04:24:15.968Z,100180.88
2023-02-01T04:26:44.922Z,100173.09
2023-02-01T04:29:12.019Z,100171.31
2023-02-01T04:31:38.841Z,100170.44
2023-02-01T04:34:08.484Z,100173.34
2023-02-01T04:36:35.122Z,100181.75
2023-02-01T04:39:01.725Z,100193.72
2023-02-01T04:41:28.302Z,100191.78
2023-02-01T04:43:57.420Z,100202.88
2023-02-01T04:46:24.028Z,100205.25
2023-02-01T04:48:50.804Z,100198.25
2023-02-01T04:51:19.154Z,100207.84
2023-02-01T04:53:48.144Z,100211.91
2023-02-01T04:56:19.929Z,100198.97
2023-02-01T04:58:46.630Z,100221.13
2023-02-01T05:03:57.509Z,100217.56
2023-02-01T05:06:24.232Z,100211.75
2023-02-01T05:08:53.886Z,100215.25
2023-02-01T05:11:41.367Z,100207.91
2023-02-01T05:14:11.148Z,100189.56
2023-02-01T05:16:54.513Z,100212.09
2023-02-01T05:19:27.558Z,100207.72
2023-02-01T05:21:56.671Z,100211.34
2023-02-01T05:25:33.586Z,100218.47
2023-02-01T05:28:51.252Z,100217.19
2023-02-01T05:32:20.630Z,100220.00
2023-02-01T05:53:46.177Z,100230.50
2023-02-01T05:56:15.724Z,100225.47
2023-02-01T05:58:42.629Z,100224.56
2023-02-01T06:01:19.068Z,100219.97
2023-02-01T06:11:45.881Z,100223.28
2023-02-01T06:14:15.392Z,100225.63
2023-02-01T06:16:46.398Z,100242.09
2023-02-01T06:19:13.681Z,100250.75
2023-02-01T06:21:40.615Z,100258.47
2023-02-01T06:24:15.853Z,100261.38
2023-02-01T06:26:43.140Z,100246.47
2023-02-01T06:29:15.955Z,100252.31
2023-02-01T06:31:46.858Z,100260.19
2023-02-01T06:34:16.273Z,100262.72
2023-02-01T06:39:34.012Z,100279.94
2023-02-01T06:42:01.363Z,100280.88
2023-02-01T06:44:29.483Z,100269.78
2023-02-01T06:46:58.470Z,100274.91
2023-02-01T06:49:27.765Z,100267.03
2023-02-01T06:51:54.585Z,100272.50
2023-02-01T06:54:21.376Z,100281.75
2023-02-01T06:56:50.521Z,100288.09
2023-02-01T06:59:19.779Z,100274.50
2023-02-01T07:01:46.488Z,100277.59
2023-02-01T07:04:13.715Z,100276.16
2023-02-01T07:06:40.703Z,100268.94
2023-02-01T07:09:07.660Z,100264.03
2023-02-01T07:11:34.390Z,100271.25
2023-02-01T07:14:01.448Z,100263.06
2023-02-01T07:16:32.245Z,100264.84
2023-02-01T07:19:00.814Z,100269.19
2023-02-01T07:21:29.847Z,100271.75
2023-02-01T07:23:56.584Z,100272.69
2023-02-01T07:26:28.519Z,100282.56
2023-02-01T07:28:55.309Z,100277.88
2023-02-01T07:31:26.342Z,100273.53
2023-02-01T07:33:53.153Z,100286.78
2023-02-01T07:36:20.121Z,100288.56
2023-02-01T07:38:49.691Z,100287.75
2023-02-01T07:41:19.709Z,100284.81
2023-02-01T07:43:48.736Z,100278.69
2023-02-01T07:46:16.426Z,100309.41
2023-02-01T07:48:43.247Z,100299.28
2023-02-01T07:51:11.313Z,100306.50
2023-02-01T07:53:39.489Z,100294.44
2023-02-01T07:56:13.780Z,100300.53
2023-02-01T07:58:40.463Z,100295.88
2023-02-01T08:01:25.601Z,100291.81
2023-02-01T08:03:52.647Z,100190.66
2023-02-01T08:06:24.549Z,100289.97
2023-02-01T08:08:53.928Z,100291.72
2023-02-01T08:11:25.977Z,100304.06
2023-02-01T08:13:52.952Z,100315.41
2023-02-01T08:16:20.286Z,100303.03
2023-02-01T08:18:47.073Z,100296.13
2023-02-01T08:21:24.151Z,100300.78
2023-02-01T08:23:51.057Z,100309.47
2023-02-01T08:26:17.952Z,100333.78
2023-02-01T08:28:45.973Z,100337.34
2023-02-01T08:31:15.915Z,100346.09
2023-02-01T08:33:43.182Z,100355.19
2023-02-01T08:36:10.276Z,100341.91
2023-02-01T08:38:37.667Z,100357.84
2023-02-01T08:41:05.611Z,100353.56
2023-02-01T08:43:34.689Z,100351.47
2023-02-01T08:46:01.457Z,100351.56
2023-02-01T08:48:33.243Z,100342.00
2023-02-01T08:51:04.543Z,100354.00
2023-02-01T08:53:31.403Z,100340.19
2023-02-01T08:55:58.761Z,100335.22
2023-02-01T08:58:27.717Z,100333.06
2023-02-01T09:00:56.787Z,100317.59
2023-02-01T09:03:23.844Z,100326.13
2023-02-01T09:05:51.091Z,100330.13
2023-02-01T09:08:21.674Z,100337.69
2023-02-01T09:10:53.072Z,100329.84
2023-02-01T09:13:23.464Z,100332.53
2023-02-01T09:15:52.599Z,100304.72
2023-02-01T09:18:19.519Z,100329.09
2023-02-01T09:20:46.200Z,100322.31
2023-02-01T09:23:15.709Z,100321.94
2023-02-01T09:25:45.264Z,100324.03
2023-02-01T09:28:13.950Z,100326.97
2023-02-01T09:30:40.760Z,100318.91
2023-02-01T09:33:07.553Z,100303.88
2023-02-01T09:35:40.583Z,100325.88
2023-02-01T09:38:07.455Z,100311.22
2023-02-01T09:40:36.710Z,100329.56
2023-02-01T09:43:15.555Z,100342.22
2023-02-01T09:45:48.380Z,100337.72
2023-02-01T09:48:22.519Z,100341.59
2023-02-01T09:50:54.593Z,100322.97
2023-02-01T09:53:26.457Z,100319.16
2023-02-01T09:55:54.544Z,100324.34
2023-02-01T09:58:24.102Z,100316.81
2023-02-01T10:00:58.443Z,100321.44
2023-02-01T10:03:25.777Z,100308.25
2023-02-01T10:06:04.673Z,100304.66
2023-02-01T10:08:32.112Z,100304.75
2023-02-01T10:11:25.167Z,100306.66
2023-02-01T10:14:07.342Z,100296.41
2023-02-01T10:16:55.353Z,100283.22
2023-02-01T10:19:25.245Z,100317.25
2023-02-01T10:22:12.176Z,100278.19
2023-02-01T10:24:48.723Z,100280.66
2023-02-01T10:27:17.536Z,100262.94
2023-02-01T10:29:46.988Z,100252.56
2023-02-01T10:32:24.071Z,100260.78
2023-02-01T10:34:57.537Z,100259.09
2023-02-01T10:37:31.327Z,100272.75
2023-02-01T10:39:58.919Z,100270.19
2023-02-01T10:42:27.325Z,100260.91
2023-02-01T10:44:54.339Z,100271.72
2023-02-01T10:47:21.262Z,100263.06
2023-02-01T10:49:53.648Z,100269.59
2023-02-01T10:52:32.432Z,100258.81
2023-02-01T10:55:04.000Z,100248.38
2023-02-01T10:57:33.230Z,100252.75
2023-02-01T10:59:59.905Z,100245.34
2023-02-01T11:02:36.181Z,100230.03
2023-02-01T11:05:10.403Z,100231.63
2023-02-01T11:07:42.560Z,100236.81
2023-02-01T11:10:10.345Z,100234.13
2023-02-01T11:12:40.301Z,100227.75
2023-02-01T11:15:16.506Z,100224.84
2023-02-01T11:17:46.580Z,100212.41
2023-02-01T11:20:18.216Z,100222.47
2023-02-01T11:22:51.201Z,100216.97
2023-02-01T11:25:18.680Z,100240.34
2023-02-01T11:27:54.621Z,100217.06
2023-02-01T11:30:35.136Z,100231.44
2023-02-01T11:33:02.191Z,100221.84
2023-02-01T11:35:29.137Z,100245.88
2023-02-01T11:38:00.125Z,100234.22
2023-02-01T11:40:33.701Z,100219.25
2023-02-01T11:43:09.707Z,100223.75
2023-02-01T11:45:41.237Z,100221.59
2023-02-01T11:48:15.052Z,100219.00
2023-02-01T11:50:59.672Z,100211.13
2023-02-01T11:53:48.530Z,100207.59
2023-02-01T11:56:21.438Z,100180.34
2023-02-01T11:58:51.328Z,100180.50
2023-02-01T12:01:18.149Z,100194.50
2023-02-01T12:03:44.928Z,100184.63
2023-02-01T12:06:17.667Z,100179.84
2023-02-01T12:08:45.951Z,100178.03
2023-02-01T12:11:13.065Z,100184.13
2023-02-01T12:13:47.340Z,100190.63
2023-02-01T12:16:20.442Z,100180.59
2023-02-01T12:19:03.256Z,100175.28
2023-02-01T12:21:49.144Z,100176.97
2023-02-01T12:24:31.092Z,100204.44
2023-02-01T12:27:00.290Z,100205.25
2023-02-01T12:29:35.366Z,100207.88
2023-02-01T12:32:08.302Z,100217.41
2023-02-01T12:34:49.596Z,100206.16
2023-02-01T12:37:19.562Z,100217.69
2023-02-01T12:39:46.627Z,100227.75
2023-02-01T12:42:19.497Z,100228.53
2023-02-01T12:44:49.135Z,100237.38
2023-02-01T12:47:18.639Z,100220.06
2023-02-01T12:49:51.369Z,100207.00
2023-02-01T12:52:20.108Z,100178.53
2023-02-01T12:54:48.653Z,100197.06
2023-02-01T12:57:22.725Z,100223.00
2023-02-01T12:59:52.608Z,100179.41
2023-02-01T13:02:25.683Z,100161.22
2023-02-01T13:05:25.239Z,100160.78
2023-02-01T13:07:57.352Z,100143.50
2023-02-01T13:10:26.492Z,100133.59
2023-02-01T13:13:05.574Z,100120.31
2023-02-01T13:15:40.753Z,100133.88
2023-02-01T13:18:10.822Z,100120.91
2023-02-01T13:20:45.781Z,100102.38
2023-02-01T13:23:32.145Z,100092.09
2023-02-01T13:25:59.201Z,100085.59
2023-02-01T13:28:29.813Z,100099.72
2023-02-01T13:31:12.027Z,100093.81
2023-02-01T13:33:54.933Z,100096.38
2023-02-01T13:36:37.809Z,100101.75
2023-02-01T13:39:04.629Z,100108.66
2023-02-01T13:41:52.812Z,100115.31
2023-02-01T13:44:30.499Z,100131.38
2023-02-01T13:47:01.315Z,100138.09
2023-02-01T13:49:32.109Z,100137.63
2023-02-01T13:51:59.358Z,100136.03
2023-02-01T13:54:30.356Z,100137.38
2023-02-01T13:57:00.035Z,100141.19
2023-02-01T13:59:38.249Z,100140.06
2023-02-01T14:02:25.032Z,100117.78
2023-02-01T14:04:56.512Z,100117.78
2023-02-01T14:07:25.704Z,100095.75
2023-02-01T14:09:52.490Z,100100.78
2023-02-01T14:12:40.469Z,100109.66
2023-02-01T14:15:28.706Z,100110.06
2023-02-01T14:17:58.252Z,100116.91
2023-02-01T14:20:44.929Z,100117.09
2023-02-01T14:23:19.032Z,100132.66
2023-02-01T14:25:46.160Z,100151.94
2023-02-01T14:28:13.623Z,100158.91
2023-02-01T14:30:43.909Z,100145.09
2023-02-01T14:33:19.080Z,100144.28
2023-02-01T14:35:54.818Z,100146.13
2023-02-01T14:38:21.456Z,100134.50
2023-02-01T14:40:50.423Z,100141.44
2023-02-01T14:43:32.481Z,100151.84
2023-02-01T14:45:59.872Z,100156.53
2023-02-01T14:48:33.500Z,100159.22
2023-02-01T14:51:00.228Z,100153.63
2023-02-01T14:53:34.144Z,100141.88
2023-02-01T14:56:11.592Z,100143.03
2023-02-01T14:58:50.637Z,100133.63
2023-02-01T15:01:18.839Z,100153.28
2023-02-01T15:03:54.108Z,100142.84
2023-02-01T15:06:31.279Z,100135.09
2023-02-01T15:09:03.666Z,100134.19
2023-02-01T15:11:30.368Z,100145.97
2023-02-01T15:13:58.312Z,100133.09
2023-02-01T15:16:26.127Z,100132.91
2023-02-01T15:19:09.709Z,100130.91
2023-02-01T15:21:45.465Z,100125.22
2023-02-01T15:24:14.757Z,100119.94
2023-02-01T15:26:41.490Z,100117.03
2023-02-01T15:29:11.507Z,100132.41
2023-02-01T15:31:42.299Z,100131.47
2023-02-01T15:34:09.140Z,100121.78
2023-02-01T15:36:36.489Z,100127.72
2023-02-01T15:39:33.305Z,100132.09
2023-02-01T15:42:04.526Z,100117.44
2023-02-01T15:44:33.699Z,100132.00
2023-02-01T15:47:06.574Z,100135.22
2023-02-01T15:49:33.984Z,100144.53
2023-02-01T15:52:03.076Z,100139.50
2023-02-01T15:54:32.584Z,100166.09
2023-02-01T15:57:00.216Z,100154.94
2023-02-01T15:59:30.797Z,100174.78
2023-02-01T16:01:57.709Z,100164.41
2023-02-01T16:04:25.628Z,100155.16
2023-02-01T16:06:56.709Z,100178.25
2023-02-01T16:09:36.761Z,100184.66
2023-02-01T16:12:06.954Z,100187.34
2023-02-01T16:14:38.851Z,100187.72
2023-02-01T16:17:05.560Z,100248.66
2023-02-01T16:19:34.651Z,100155.09
2023-02-01T16:22:03.587Z,100168.47
2023-02-01T16:24:30.433Z,100171.78
2023-02-01T16:26:59.490Z,100153.16
2023-02-01T16:29:29.001Z,100173.97
2023-02-01T16:31:55.705Z,100168.22
2023-02-01T16:34:24.833Z,100164.81
2023-02-01T16:36:58.198Z,100166.75
2023-02-01T16:39:28.677Z,100165.88
2023-02-01T16:42:00.722Z,100160.81
2023-02-01T16:44:27.877Z,100144.59
2023-02-01T16:46:57.196Z,100165.00
2023-02-01T16:49:26.054Z,100150.94
2023-02-01T16:51:56.152Z,100152.28
2023-02-01T16:54:27.886Z,100143.53
2023-02-01T16:56:56.889Z,100144.25
2023-02-01T16:59:23.924Z,100149.63
2023-02-01T17:01:56.078Z,100137.03
2023-02-01T17:04:22.946Z,100118.41
2023-02-01T17:06:54.776Z,100141.94
2023-02-01T17:09:21.897Z,100137.28
2023-02-01T17:11:51.097Z,100137.44
2023-02-01T17:14:21.056Z,100133.50
2023-02-01T17:16:50.387Z,100137.28
2023-02-01T17:19:18.941Z,100131.16
2023-02-01T17:21:49.921Z,100138.88
2023-02-01T17:24:17.450Z,100132.63
2023-02-01T17:26:44.571Z,100126.66
2023-02-01T17:29:13.922Z,100121.03
2023-02-01T17:31:47.564Z,100148.94
2023-02-01T17:34:18.123Z,100111.53
2023-02-01T17:36:46.052Z,100135.06
2023-02-01T17:39:32.816Z,100140.06
2023-02-01T17:42:07.749Z,100128.38
2023-02-01T17:44:34.390Z,100154.25
2023-02-01T17:47:01.081Z,100121.22
2023-02-01T17:49:35.295Z,100125.84
2023-02-01T17:52:04.393Z,100120.34
2023-02-01T17:54:30.917Z,100131.78
2023-02-01T17:57:00.733Z,100136.97
2023-02-01T17:59:27.408Z,100135.16
2023-02-01T18:02:00.838Z,100139.44
2023-02-01T18:04:27.708Z,100150.63
2023-02-01T18:06:57.869Z,100142.91
2023-02-01T18:09:24.628Z,100149.66
2023-02-01T18:11:55.698Z,100137.59
2023-02-01T18:14:25.615Z,100138.47
2023-02-01T18:16:53.441Z,100151.66
2023-02-01T18:19:20.139Z,100128.69
2023-02-01T18:21:48.356Z,100147.75
2023-02-01T18:24:15.469Z,100165.75
2023-02-01T18:26:42.724Z,100136.72
2023-02-01T18:29:11.665Z,100175.19
2023-02-01T18:31:44.588Z,100153.50
2023-02-01T18:34:21.335Z,100137.75
2023-02-01T18:36:50.772Z,100170.75
2023-02-01T18:39:17.928Z,100162.38
2023-02-01T18:41:47.959Z,100146.03
2023-02-01T18:44:17.715Z,100142.59
2023-02-01T18:46:44.483Z,100142.59
2023-02-01T18:49:16.116Z,100156.13
2023-02-01T18:51:52.207Z,100169.63
2023-02-01T18:54:26.377Z,100160.06
2023-02-01T18:56:55.789Z,100154.78
2023-02-01T18:59:27.452Z,100153.13
2023-02-01T19:01:54.423Z,100157.41
2023-02-01T19:04:26.149Z,100167.03
2023-02-01T19:07:01.133Z,100151.75
2023-02-01T19:09:29.750Z,100158.59
2023-02-01T19:11:56.487Z,100133.53
2023-02-01T19:14:23.369Z,100134.50
2023-02-01T19:16:50.182Z,100142.13
2023-02-01T19:19:16.839Z,100145.72
2023-02-01T19:21:45.988Z,100145.22
2023-02-01T19:24:15.252Z,100154.06
2023-02-01T19:26:44.971Z,100128.38
2023-02-01T19:29:11.661Z,100153.19
2023-02-01T19:31:38.620Z,100117.78
2023-02-01T19:34:14.099Z,100132.28
2023-02-01T19:36:43.871Z,100116.69
2023-02-01T19:39:10.944Z,100128.00
2023-02-01T19:41:37.697Z,100110.22
2023-02-01T19:44:06.007Z,100120.50
2023-02-01T19:46:32.722Z,100109.28
2023-02-01T19:48:59.487Z,100122.16
2023-02-01T19:51:26.385Z,100118.75
2023-02-01T19:53:52.992Z,100141.19
2023-02-01T19:56:20.557Z,100113.81
2023-02-01T19:58:47.289Z,100126.63
2023-02-01T20:01:15.432Z,100121.78
2023-02-01T20:03:42.122Z,100091.97
2023-02-01T20:06:09.947Z,100133.16
2023-02-01T20:08:39.077Z,100107.28
2023-02-01T20:11:06.283Z,100125.81
2023-02-01T20:13:38.632Z,100119.72
2023-02-01T20:16:10.134Z,100136.63
2023-02-01T20:18:37.058Z,100144.34
2023-02-01T20:21:04.172Z,100122.06
2023-02-01T20:23:33.051Z,100129.06
2023-02-01T20:26:12.112Z,100129.00
2023-02-01T20:28:39.139Z,100124.47
2023-02-01T20:31:06.269Z,100131.41
2023-02-01T20:33:33.162Z,100132.28
2023-02-01T20:36:02.139Z,100139.91
2023-02-01T20:38:28.863Z,100128.16
2023-02-01T20:41:04.895Z,100138.63
2023-02-01T20:43:32.038Z,100154.59
2023-02-01T20:45:58.746Z,100158.47
2023-02-01T20:48:29.511Z,100152.06
2023-02-01T20:50:58.864Z,100160.97
2023-02-01T20:53:28.952Z,100178.03
2023-02-01T20:55:58.570Z,100156.63
2023-02-01T20:58:25.368Z,100145.78
2023-02-01T21:00:56.646Z,100142.66
2023-02-01T21:03:24.041Z,100135.31
2023-02-01T21:05:55.335Z,100145.50
2023-02-01T21:08:25.197Z,100132.75
2023-02-01T21:10:57.889Z,100145.59
2023-02-01T21:13:31.056Z,100155.00
2023-02-01T21:16:01.803Z,100132.03
2023-02-01T21:18:28.955Z,100137.19
2023-02-01T21:20:58.231Z,100135.56
2023-02-01T21:23:24.909Z,100132.09
2023-02-01T21:25:54.136Z,100134.78
2023-02-01T21:28:21.633Z,100132.38
2023-02-01T21:30:53.649Z,100145.34
2023-02-01T21:33:20.351Z,100132.59
2023-02-01T21:35:50.071Z,100151.81
2023-02-01T21:38:23.273Z,100138.72
2023-02-01T21:41:29.570Z,100156.44
2023-02-01T21:44:24.699Z,100184.66
2023-02-01T21:46:55.700Z,100159.66
2023-02-01T21:49:27.624Z,100155.53
2023-02-01T21:51:55.213Z,100171.53
2023-02-01T21:54:26.724Z,100175.00
2023-02-01T21:56:53.966Z,100142.75
2023-02-01T21:59:23.677Z,100147.88
2023-02-01T22:02:00.627Z,100152.19
2023-02-01T22:04:28.055Z,100152.66
2023-02-01T22:06:57.703Z,100138.66
2023-02-01T22:09:25.337Z,100136.00
2023-02-01T22:11:54.808Z,100109.84
2023-02-01T22:14:24.491Z,100104.13
2023-02-01T22:16:54.610Z,100097.78
2023-02-01T22:19:24.356Z,100103.16
2023-02-01T22:21:51.389Z,100092.59
2023-02-01T22:24:25.544Z,100095.13
2023-02-01T22:28:32.442Z,100109.53
2023-02-01T22:35:00.313Z,100098.06
2023-02-01T22:38:28.390Z,100091.72
2023-02-01T22:53:11.208Z,100095.13
2023-02-01T22:55:43.441Z,100086.59
2023-02-01T22:58:10.549Z,100078.22
2023-02-01T23:00:49.407Z,100092.78
2023-02-01T23:03:18.875Z,100079.91
2023-02-01T23:05:48.326Z,100072.03
2023-02-01T23:08:15.693Z,100108.69
2023-02-01T23:10:43.053Z,100072.16
2023-02-01T23:13:11.192Z,100085.00
2023-02-01T23:19:58.973Z,100082.75
2023-02-01T23:22:31.627Z,100082.19
2023-02-01T23:25:07.391Z,100070.38
2023-02-01T23:28:01.876Z,100090.41
2023-02-01T23:30:31.027Z,100045.91
2023-02-01T23:32:58.887Z,100047.03
2023-02-01T23:35:46.035Z,100060.66
2023-02-01T23:38:16.069Z,100065.53
2023-02-01T23:40:44.940Z,100044.75
2023-02-01T23:43:35.418Z,100055.47
2023-02-01T23:46:07.625Z,100044.34
2023-02-01T23:48:36.206Z,100036.06
2023-02-01T23:51:10.149Z,100061.88
2023-02-01T23:53:40.353Z,100049.50
2023-02-01T23:56:07.546Z,100049.34
2023-02-01T23:58:38.391Z,100046.28
